sensor_id;sensor_type;location;lat;lon;timestamp;P1;durP1;ratioP1;P2;durP2;ratioP2
69551;SDS011;63774;45.292;11.784;2022-12-07T00:02:14;13.90;;;7.70;;
69551;SDS011;63774;45.292;11.784;2022-12-07T00:04:40;15.00;;;8.70;;
69551;SDS011;63774;45.292;11.784;2022-12-07T00:07:05;14.90;;;8.00;;
69551;SDS011;63774;45.292;11.784;2022-12-07T00:09:31;14.00;;;7.70;;
69551;SDS011;63774;45.292;11.784;2022-12-07T00:11:56;14.90;;;7.80;;
69551;SDS011;63774;45.292;11.784;2022-12-07T00:14:21;13.50;;;7.90;;
69551;SDS011;63774;45.292;11.784;2022-12-07T00:16:48;14.00;;;8.10;;
69551;SDS011;63774;45.292;11.784;2022-12-07T00:19:15;13.80;;;8.10;;
69551;SDS011;63774;45.292;11.784;2022-12-07T00:21:41;14.20;;;7.40;;
69551;SDS011;63774;45.292;11.784;2022-12-07T00:24:06;13.20;;;7.60;;
69551;SDS011;63774;45.292;11.784;2022-12-07T00:26:34;14.00;;;7.90;;
69551;SDS011;63774;45.292;11.784;2022-12-07T00:29:05;12.90;;;7.70;;
69551;SDS011;63774;45.292;11.784;2022-12-07T00:31:33;14.50;;;7.90;;
69551;SDS011;63774;45.292;11.784;2022-12-07T00:34:03;13.30;;;7.60;;
69551;SDS011;63774;45.292;11.784;2022-12-07T00:36:30;12.70;;;7.10;;
69551;SDS011;63774;45.292;11.784;2022-12-07T00:38:57;13.70;;;8.00;;
69551;SDS011;63774;45.292;11.784;2022-12-07T00:41:24;13.30;;;7.80;;
69551;SDS011;63774;45.292;11.784;2022-12-07T00:43:51;13.30;;;7.90;;
69551;SDS011;63774;45.292;11.784;2022-12-07T00:46:17;13.10;;;7.80;;
69551;SDS011;63774;45.292;11.784;2022-12-07T00:48:43;13.20;;;7.60;;
69551;SDS011;63774;45.292;11.784;2022-12-07T00:51:10;13.60;;;8.10;;
69551;SDS011;63774;45.292;11.784;2022-12-07T00:53:37;14.00;;;8.00;;
69551;SDS011;63774;45.292;11.784;2022-12-07T00:56:07;13.20;;;8.30;;
69551;SDS011;63774;45.292;11.784;2022-12-07T00:58:37;13.70;;;7.60;;
69551;SDS011;63774;45.292;11.784;2022-12-07T01:01:04;13.40;;;7.90;;
69551;SDS011;63774;45.292;11.784;2022-12-07T01:03:30;12.30;;;7.70;;
69551;SDS011;63774;45.292;11.784;2022-12-07T01:05:56;14.60;;;7.70;;
69551;SDS011;63774;45.292;11.784;2022-12-07T01:08:22;12.70;;;7.70;;
69551;SDS011;63774;45.292;11.784;2022-12-07T01:10:49;14.90;;;7.80;;
69551;SDS011;63774;45.292;11.784;2022-12-07T01:13:27;13.20;;;7.90;;
69551;SDS011;63774;45.292;11.784;2022-12-07T01:15:55;11.20;;;7.20;;
69551;SDS011;63774;45.292;11.784;2022-12-07T01:18:23;13.90;;;7.80;;
69551;SDS011;63774;45.292;11.784;2022-12-07T01:21:02;13.80;;;7.90;;
69551;SDS011;63774;45.292;11.784;2022-12-07T01:23:31;12.00;;;7.10;;
69551;SDS011;63774;45.292;11.784;2022-12-07T01:25:59;11.60;;;7.50;;
69551;SDS011;63774;45.292;11.784;2022-12-07T01:28:27;13.50;;;7.80;;
69551;SDS011;63774;45.292;11.784;2022-12-07T01:33:22;12.10;;;7.20;;
69551;SDS011;63774;45.292;11.784;2022-12-07T01:35:47;12.30;;;7.50;;
69551;SDS011;63774;45.292;11.784;2022-12-07T01:38:13;10.90;;;6.80;;
69551;SDS011;63774;45.292;11.784;2022-12-07T01:40:38;12.40;;;7.20;;
69551;SDS011;63774;45.292;11.784;2022-12-07T01:43:07;11.80;;;6.90;;
69551;SDS011;63774;45.292;11.784;2022-12-07T01:45:40;13.00;;;6.80;;
69551;SDS011;63774;45.292;11.784;2022-12-07T01:48:07;12.90;;;7.30;;
69551;SDS011;63774;45.292;11.784;2022-12-07T01:50:35;12.20;;;7.30;;
69551;SDS011;63774;45.292;11.784;2022-12-07T01:53:03;12.70;;;7.00;;
69551;SDS011;63774;45.292;11.784;2022-12-07T01:55:31;12.00;;;7.30;;
69551;SDS011;63774;45.292;11.784;2022-12-07T01:57:58;12.50;;;7.50;;
69551;SDS011;63774;45.292;11.784;2022-12-07T02:00:24;12.60;;;7.30;;
69551;SDS011;63774;45.292;11.784;2022-12-07T02:02:54;10.80;;;6.60;;
69551;SDS011;63774;45.292;11.784;2022-12-07T02:05:24;12.90;;;7.20;;
69551;SDS011;63774;45.292;11.784;2022-12-07T02:07:50;11.10;;;7.00;;
69551;SDS011;63774;45.292;11.784;2022-12-07T02:12:47;11.90;;;6.90;;
69551;SDS011;63774;45.292;11.784;2022-12-07T02:15:17;12.10;;;6.50;;
69551;SDS011;63774;45.292;11.784;2022-12-07T02:18:00;12.10;;;7.00;;
69551;SDS011;63774;45.292;11.784;2022-12-07T02:20:57;11.70;;;6.90;;
69551;SDS011;63774;45.292;11.784;2022-12-07T02:43:10;10.90;;;6.40;;
69551;SDS011;63774;45.292;11.784;2022-12-07T02:45:40;11.10;;;6.40;;
69551;SDS011;63774;45.292;11.784;2022-12-07T02:48:07;11.50;;;6.80;;
69551;SDS011;63774;45.292;11.784;2022-12-07T02:50:34;9.90;;;6.40;;
69551;SDS011;63774;45.292;11.784;2022-12-07T02:53:00;9.80;;;6.10;;
69551;SDS011;63774;45.292;11.784;2022-12-07T02:55:28;10.20;;;6.00;;
69551;SDS011;63774;45.292;11.784;2022-12-07T02:58:02;9.50;;;6.00;;
69551;SDS011;63774;45.292;11.784;2022-12-07T03:00:42;12.40;;;6.40;;
69551;SDS011;63774;45.292;11.784;2022-12-07T03:03:27;10.70;;;6.30;;
69551;SDS011;63774;45.292;11.784;2022-12-07T03:09:00;9.10;;;5.40;;
69551;SDS011;63774;45.292;11.784;2022-12-07T03:11:56;10.20;;;5.90;;
69551;SDS011;63774;45.292;11.784;2022-12-07T03:14:31;9.20;;;6.00;;
69551;SDS011;63774;45.292;11.784;2022-12-07T03:17:18;9.60;;;5.70;;
69551;SDS011;63774;45.292;11.784;2022-12-07T03:19:46;9.20;;;5.80;;
69551;SDS011;63774;45.292;11.784;2022-12-07T03:22:16;9.60;;;5.90;;
69551;SDS011;63774;45.292;11.784;2022-12-07T03:24:54;9.70;;;5.30;;
69551;SDS011;63774;45.292;11.784;2022-12-07T03:27:33;10.40;;;5.90;;
69551;SDS011;63774;45.292;11.784;2022-12-07T03:30:06;9.80;;;6.20;;
69551;SDS011;63774;45.292;11.784;2022-12-07T03:32:45;9.20;;;5.70;;
69551;SDS011;63774;45.292;11.784;2022-12-07T03:43:00;9.40;;;5.80;;
69551;SDS011;63774;45.292;11.784;2022-12-07T03:45:38;8.00;;;5.10;;
69551;SDS011;63774;45.292;11.784;2022-12-07T03:56:08;8.80;;;5.40;;
69551;SDS011;63774;45.292;11.784;2022-12-07T03:58:35;10.60;;;5.70;;
69551;SDS011;63774;45.292;11.784;2022-12-07T04:01:01;9.10;;;5.70;;
69551;SDS011;63774;45.292;11.784;2022-12-07T04:03:27;10.50;;;6.20;;
69551;SDS011;63774;45.292;11.784;2022-12-07T04:05:53;7.80;;;4.80;;
69551;SDS011;63774;45.292;11.784;2022-12-07T04:08:19;7.70;;;4.90;;
69551;SDS011;63774;45.292;11.784;2022-12-07T04:10:44;8.40;;;5.20;;
69551;SDS011;63774;45.292;11.784;2022-12-07T04:13:10;9.00;;;5.50;;
69551;SDS011;63774;45.292;11.784;2022-12-07T04:15:35;8.10;;;5.10;;
69551;SDS011;63774;45.292;11.784;2022-12-07T04:18:01;8.60;;;5.50;;
69551;SDS011;63774;45.292;11.784;2022-12-07T04:20:26;8.70;;;5.10;;
69551;SDS011;63774;45.292;11.784;2022-12-07T04:22:52;8.00;;;5.10;;
69551;SDS011;63774;45.292;11.784;2022-12-07T04:25:17;8.00;;;5.20;;
69551;SDS011;63774;45.292;11.784;2022-12-07T04:27:43;7.90;;;5.00;;
69551;SDS011;63774;45.292;11.784;2022-12-07T04:30:08;8.50;;;5.40;;
69551;SDS011;63774;45.292;11.784;2022-12-07T04:32:34;8.10;;;5.20;;
69551;SDS011;63774;45.292;11.784;2022-12-07T04:34:59;7.50;;;5.00;;
69551;SDS011;63774;45.292;11.784;2022-12-07T04:37:25;8.00;;;5.00;;
69551;SDS011;63774;45.292;11.784;2022-12-07T04:39:50;8.40;;;5.50;;
69551;SDS011;63774;45.292;11.784;2022-12-07T04:42:16;9.00;;;5.30;;
69551;SDS011;63774;45.292;11.784;2022-12-07T04:44:41;7.70;;;4.90;;
69551;SDS011;63774;45.292;11.784;2022-12-07T04:47:06;7.00;;;4.80;;
69551;SDS011;63774;45.292;11.784;2022-12-07T04:49:32;8.00;;;4.90;;
69551;SDS011;63774;45.292;11.784;2022-12-07T04:51:57;8.00;;;5.10;;
69551;SDS011;63774;45.292;11.784;2022-12-07T04:54:23;7.90;;;5.10;;
69551;SDS011;63774;45.292;11.784;2022-12-07T04:56:48;8.20;;;5.10;;
69551;SDS011;63774;45.292;11.784;2022-12-07T04:59:15;8.10;;;5.00;;
69551;SDS011;63774;45.292;11.784;2022-12-07T05:01:41;7.00;;;4.50;;
69551;SDS011;63774;45.292;11.784;2022-12-07T05:04:07;7.10;;;4.70;;
69551;SDS011;63774;45.292;11.784;2022-12-07T05:06:33;8.90;;;4.80;;
69551;SDS011;63774;45.292;11.784;2022-12-07T05:08:58;7.20;;;4.60;;
69551;SDS011;63774;45.292;11.784;2022-12-07T05:11:25;8.30;;;4.70;;
69551;SDS011;63774;45.292;11.784;2022-12-07T05:16:42;7.60;;;5.00;;
69551;SDS011;63774;45.292;11.784;2022-12-07T05:19:09;8.10;;;4.70;;
69551;SDS011;63774;45.292;11.784;2022-12-07T05:21:35;7.70;;;4.70;;
69551;SDS011;63774;45.292;11.784;2022-12-07T05:24:02;6.90;;;4.70;;
69551;SDS011;63774;45.292;11.784;2022-12-07T05:26:27;7.20;;;4.80;;
69551;SDS011;63774;45.292;11.784;2022-12-07T05:28:53;7.90;;;5.10;;
69551;SDS011;63774;45.292;11.784;2022-12-07T05:31:19;7.30;;;4.30;;
69551;SDS011;63774;45.292;11.784;2022-12-07T05:33:45;6.40;;;4.40;;
69551;SDS011;63774;45.292;11.784;2022-12-07T05:36:11;5.80;;;4.20;;
69551;SDS011;63774;45.292;11.784;2022-12-07T05:38:36;6.30;;;4.40;;
69551;SDS011;63774;45.292;11.784;2022-12-07T05:41:02;7.70;;;4.70;;
69551;SDS011;63774;45.292;11.784;2022-12-07T05:43:29;6.80;;;4.50;;
69551;SDS011;63774;45.292;11.784;2022-12-07T05:45:55;7.10;;;4.70;;
69551;SDS011;63774;45.292;11.784;2022-12-07T05:48:21;7.50;;;4.80;;
69551;SDS011;63774;45.292;11.784;2022-12-07T05:50:50;7.10;;;4.60;;
69551;SDS011;63774;45.292;11.784;2022-12-07T05:53:16;7.70;;;4.80;;
69551;SDS011;63774;45.292;11.784;2022-12-07T05:55:43;7.10;;;4.60;;
69551;SDS011;63774;45.292;11.784;2022-12-07T05:58:08;7.30;;;4.50;;
69551;SDS011;63774;45.292;11.784;2022-12-07T06:00:56;7.30;;;4.40;;
69551;SDS011;63774;45.292;11.784;2022-12-07T06:03:22;7.40;;;4.60;;
69551;SDS011;63774;45.292;11.784;2022-12-07T06:05:47;6.70;;;4.10;;
69551;SDS011;63774;45.292;11.784;2022-12-07T06:08:13;7.10;;;4.50;;
69551;SDS011;63774;45.292;11.784;2022-12-07T06:10:40;6.70;;;4.20;;
69551;SDS011;63774;45.292;11.784;2022-12-07T06:13:06;6.40;;;4.10;;
69551;SDS011;63774;45.292;11.784;2022-12-07T06:15:33;6.90;;;4.30;;
69551;SDS011;63774;45.292;11.784;2022-12-07T06:18:01;6.20;;;4.10;;
69551;SDS011;63774;45.292;11.784;2022-12-07T06:20:26;6.70;;;4.10;;
69551;SDS011;63774;45.292;11.784;2022-12-07T06:22:52;6.30;;;4.30;;
69551;SDS011;63774;45.292;11.784;2022-12-07T06:25:17;6.90;;;4.40;;
69551;SDS011;63774;45.292;11.784;2022-12-07T06:27:42;6.60;;;4.30;;
69551;SDS011;63774;45.292;11.784;2022-12-07T06:30:08;8.00;;;4.40;;
69551;SDS011;63774;45.292;11.784;2022-12-07T06:32:35;6.10;;;4.00;;
69551;SDS011;63774;45.292;11.784;2022-12-07T06:35:02;6.70;;;4.30;;
69551;SDS011;63774;45.292;11.784;2022-12-07T06:37:28;6.40;;;4.20;;
69551;SDS011;63774;45.292;11.784;2022-12-07T06:39:54;6.60;;;4.40;;
69551;SDS011;63774;45.292;11.784;2022-12-07T06:42:19;6.20;;;3.90;;
69551;SDS011;63774;45.292;11.784;2022-12-07T06:44:44;6.80;;;4.40;;
69551;SDS011;63774;45.292;11.784;2022-12-07T06:47:10;6.30;;;4.10;;
69551;SDS011;63774;45.292;11.784;2022-12-07T06:49:36;5.70;;;3.90;;
69551;SDS011;63774;45.292;11.784;2022-12-07T06:52:01;6.00;;;4.00;;
69551;SDS011;63774;45.292;11.784;2022-12-07T06:54:27;6.00;;;3.90;;
69551;SDS011;63774;45.292;11.784;2022-12-07T06:56:55;6.40;;;4.20;;
69551;SDS011;63774;45.292;11.784;2022-12-07T06:59:20;6.00;;;3.70;;
69551;SDS011;63774;45.292;11.784;2022-12-07T07:01:46;6.50;;;4.00;;
69551;SDS011;63774;45.292;11.784;2022-12-07T07:04:11;5.90;;;3.90;;
69551;SDS011;63774;45.292;11.784;2022-12-07T07:06:37;7.40;;;4.60;;
69551;SDS011;63774;45.292;11.784;2022-12-07T07:09:03;6.00;;;4.00;;
69551;SDS011;63774;45.292;11.784;2022-12-07T07:11:28;7.50;;;4.40;;
69551;SDS011;63774;45.292;11.784;2022-12-07T07:13:53;6.40;;;3.80;;
69551;SDS011;63774;45.292;11.784;2022-12-07T07:16:21;6.80;;;4.10;;
69551;SDS011;63774;45.292;11.784;2022-12-07T07:18:47;6.70;;;4.10;;
69551;SDS011;63774;45.292;11.784;2022-12-07T07:21:13;6.70;;;3.80;;
69551;SDS011;63774;45.292;11.784;2022-12-07T07:23:38;6.10;;;4.00;;
69551;SDS011;63774;45.292;11.784;2022-12-07T07:26:04;7.20;;;4.10;;
69551;SDS011;63774;45.292;11.784;2022-12-07T07:28:29;6.20;;;4.30;;
69551;SDS011;63774;45.292;11.784;2022-12-07T07:30:54;5.40;;;3.70;;
69551;SDS011;63774;45.292;11.784;2022-12-07T07:33:20;6.30;;;3.90;;
69551;SDS011;63774;45.292;11.784;2022-12-07T07:35:45;5.50;;;4.00;;
69551;SDS011;63774;45.292;11.784;2022-12-07T07:38:11;6.50;;;4.10;;
69551;SDS011;63774;45.292;11.784;2022-12-07T07:40:36;5.30;;;3.80;;
69551;SDS011;63774;45.292;11.784;2022-12-07T07:43:02;6.60;;;3.80;;
69551;SDS011;63774;45.292;11.784;2022-12-07T07:45:28;6.10;;;3.90;;
69551;SDS011;63774;45.292;11.784;2022-12-07T07:47:53;6.60;;;4.10;;
69551;SDS011;63774;45.292;11.784;2022-12-07T07:50:19;6.60;;;4.10;;
69551;SDS011;63774;45.292;11.784;2022-12-07T07:52:46;5.80;;;4.10;;
69551;SDS011;63774;45.292;11.784;2022-12-07T07:55:11;6.10;;;3.90;;
69551;SDS011;63774;45.292;11.784;2022-12-07T07:57:37;5.60;;;3.80;;
69551;SDS011;63774;45.292;11.784;2022-12-07T08:00:04;6.20;;;4.10;;
69551;SDS011;63774;45.292;11.784;2022-12-07T08:02:32;7.60;;;3.90;;
69551;SDS011;63774;45.292;11.784;2022-12-07T08:04:57;5.60;;;3.60;;
69551;SDS011;63774;45.292;11.784;2022-12-07T08:07:23;6.00;;;3.90;;
69551;SDS011;63774;45.292;11.784;2022-12-07T08:09:48;6.70;;;4.20;;
69551;SDS011;63774;45.292;11.784;2022-12-07T08:12:14;6.60;;;4.40;;
69551;SDS011;63774;45.292;11.784;2022-12-07T08:14:39;6.20;;;4.10;;
69551;SDS011;63774;45.292;11.784;2022-12-07T08:17:05;6.40;;;4.20;;
69551;SDS011;63774;45.292;11.784;2022-12-07T08:19:30;6.30;;;4.30;;
69551;SDS011;63774;45.292;11.784;2022-12-07T08:21:56;6.40;;;4.00;;
69551;SDS011;63774;45.292;11.784;2022-12-07T08:24:21;7.50;;;4.60;;
69551;SDS011;63774;45.292;11.784;2022-12-07T08:26:47;8.00;;;4.50;;
69551;SDS011;63774;45.292;11.784;2022-12-07T08:29:14;6.70;;;3.80;;
69551;SDS011;63774;45.292;11.784;2022-12-07T08:31:40;6.00;;;4.20;;
69551;SDS011;63774;45.292;11.784;2022-12-07T08:34:05;6.00;;;4.00;;
69551;SDS011;63774;45.292;11.784;2022-12-07T08:36:31;7.10;;;4.50;;
69551;SDS011;63774;45.292;11.784;2022-12-07T08:38:56;6.70;;;4.20;;
69551;SDS011;63774;45.292;11.784;2022-12-07T08:41:21;7.20;;;4.30;;
69551;SDS011;63774;45.292;11.784;2022-12-07T08:43:47;5.90;;;4.10;;
69551;SDS011;63774;45.292;11.784;2022-12-07T08:48:49;7.00;;;4.20;;
69551;SDS011;63774;45.292;11.784;2022-12-07T08:51:16;8.40;;;4.90;;
69551;SDS011;63774;45.292;11.784;2022-12-07T08:53:42;5.80;;;3.90;;
69551;SDS011;63774;45.292;11.784;2022-12-07T08:56:08;6.20;;;4.10;;
69551;SDS011;63774;45.292;11.784;2022-12-07T08:58:34;7.20;;;4.20;;
69551;SDS011;63774;45.292;11.784;2022-12-07T09:01:01;6.30;;;4.30;;
69551;SDS011;63774;45.292;11.784;2022-12-07T09:03:26;6.00;;;4.00;;
69551;SDS011;63774;45.292;11.784;2022-12-07T09:05:52;7.00;;;4.50;;
69551;SDS011;63774;45.292;11.784;2022-12-07T09:08:19;6.40;;;4.20;;
69551;SDS011;63774;45.292;11.784;2022-12-07T09:10:45;6.00;;;3.90;;
69551;SDS011;63774;45.292;11.784;2022-12-07T09:13:11;6.10;;;3.80;;
69551;SDS011;63774;45.292;11.784;2022-12-07T09:15:36;6.10;;;3.90;;
69551;SDS011;63774;45.292;11.784;2022-12-07T09:18:02;7.20;;;4.30;;
69551;SDS011;63774;45.292;11.784;2022-12-07T09:20:27;6.60;;;4.30;;
69551;SDS011;63774;45.292;11.784;2022-12-07T09:22:53;6.50;;;4.20;;
69551;SDS011;63774;45.292;11.784;2022-12-07T09:25:18;6.50;;;4.40;;
69551;SDS011;63774;45.292;11.784;2022-12-07T09:27:44;8.10;;;4.30;;
69551;SDS011;63774;45.292;11.784;2022-12-07T09:30:09;5.90;;;4.10;;
69551;SDS011;63774;45.292;11.784;2022-12-07T09:32:35;5.60;;;3.80;;
69551;SDS011;63774;45.292;11.784;2022-12-07T09:35:00;6.70;;;4.30;;
69551;SDS011;63774;45.292;11.784;2022-12-07T09:37:25;7.10;;;4.70;;
69551;SDS011;63774;45.292;11.784;2022-12-07T09:39:51;6.60;;;4.50;;
69551;SDS011;63774;45.292;11.784;2022-12-07T09:44:59;11.30;;;5.70;;
69551;SDS011;63774;45.292;11.784;2022-12-07T09:47:25;11.50;;;6.20;;
69551;SDS011;63774;45.292;11.784;2022-12-07T09:50:00;9.40;;;6.00;;
69551;SDS011;63774;45.292;11.784;2022-12-07T09:52:30;9.80;;;5.90;;
69551;SDS011;63774;45.292;11.784;2022-12-07T09:54:57;8.70;;;6.10;;
69551;SDS011;63774;45.292;11.784;2022-12-07T09:57:28;10.80;;;6.70;;
69551;SDS011;63774;45.292;11.784;2022-12-07T09:59:56;12.70;;;6.70;;
69551;SDS011;63774;45.292;11.784;2022-12-07T10:04:58;10.90;;;5.90;;
69551;SDS011;63774;45.292;11.784;2022-12-07T10:07:24;9.60;;;6.20;;
69551;SDS011;63774;45.292;11.784;2022-12-07T10:09:49;10.80;;;6.40;;
69551;SDS011;63774;45.292;11.784;2022-12-07T10:12:15;11.00;;;6.70;;
69551;SDS011;63774;45.292;11.784;2022-12-07T10:14:52;12.00;;;6.30;;
69551;SDS011;63774;45.292;11.784;2022-12-07T10:17:26;9.90;;;6.20;;
69551;SDS011;63774;45.292;11.784;2022-12-07T10:22:54;9.50;;;5.80;;
69551;SDS011;63774;45.292;11.784;2022-12-07T10:25:26;10.90;;;5.80;;
69551;SDS011;63774;45.292;11.784;2022-12-07T10:28:02;9.60;;;6.20;;
69551;SDS011;63774;45.292;11.784;2022-12-07T10:30:57;10.00;;;6.30;;
69551;SDS011;63774;45.292;11.784;2022-12-07T10:33:27;8.80;;;5.80;;
69551;SDS011;63774;45.292;11.784;2022-12-07T10:35:58;8.50;;;5.80;;
69551;SDS011;63774;45.292;11.784;2022-12-07T10:38:25;9.80;;;5.60;;
69551;SDS011;63774;45.292;11.784;2022-12-07T10:41:02;8.50;;;5.60;;
69551;SDS011;63774;45.292;11.784;2022-12-07T10:43:30;8.30;;;5.30;;
69551;SDS011;63774;45.292;11.784;2022-12-07T10:46:39;8.00;;;5.20;;
69551;SDS011;63774;45.292;11.784;2022-12-07T11:02:57;7.20;;;4.70;;
69551;SDS011;63774;45.292;11.784;2022-12-07T11:05:48;8.30;;;5.40;;
69551;SDS011;63774;45.292;11.784;2022-12-07T11:08:38;8.00;;;4.90;;
69551;SDS011;63774;45.292;11.784;2022-12-07T11:14:25;7.60;;;5.00;;
69551;SDS011;63774;45.292;11.784;2022-12-07T11:17:18;9.10;;;4.90;;
69551;SDS011;63774;45.292;11.784;2022-12-07T11:38:55;7.60;;;4.20;;
69551;SDS011;63774;45.292;11.784;2022-12-07T11:41:27;7.50;;;4.40;;
69551;SDS011;63774;45.292;11.784;2022-12-07T11:43:59;7.20;;;4.20;;
69551;SDS011;63774;45.292;11.784;2022-12-07T11:49:19;6.50;;;4.00;;
69551;SDS011;63774;45.292;11.784;2022-12-07T11:51:51;6.30;;;3.70;;
69551;SDS011;63774;45.292;11.784;2022-12-07T11:54:20;6.00;;;3.90;;
69551;SDS011;63774;45.292;11.784;2022-12-07T11:56:50;6.60;;;4.10;;
69551;SDS011;63774;45.292;11.784;2022-12-07T12:04:55;5.20;;;3.60;;
69551;SDS011;63774;45.292;11.784;2022-12-07T12:07:28;6.00;;;3.70;;
69551;SDS011;63774;45.292;11.784;2022-12-07T12:23:34;5.30;;;3.30;;
69551;SDS011;63774;45.292;11.784;2022-12-07T12:26:05;5.80;;;3.50;;
69551;SDS011;63774;45.292;11.784;2022-12-07T12:31:05;5.70;;;3.50;;
69551;SDS011;63774;45.292;11.784;2022-12-07T12:33:31;5.60;;;3.30;;
69551;SDS011;63774;45.292;11.784;2022-12-07T12:36:18;6.00;;;3.30;;
69551;SDS011;63774;45.292;11.784;2022-12-07T12:47:38;6.50;;;3.00;;
69551;SDS011;63774;45.292;11.784;2022-12-07T12:50:18;4.60;;;3.00;;
69551;SDS011;63774;45.292;11.784;2022-12-07T12:53:14;6.00;;;3.40;;
69551;SDS011;63774;45.292;11.784;2022-12-07T12:58:30;5.70;;;3.10;;
69551;SDS011;63774;45.292;11.784;2022-12-07T13:03:57;7.90;;;3.10;;
69551;SDS011;63774;45.292;11.784;2022-12-07T13:08:59;5.80;;;3.30;;
69551;SDS011;63774;45.292;11.784;2022-12-07T13:11:35;5.00;;;3.00;;
69551;SDS011;63774;45.292;11.784;2022-12-07T13:20:00;4.30;;;2.60;;
69551;SDS011;63774;45.292;11.784;2022-12-07T13:28:10;4.50;;;2.70;;
69551;SDS011;63774;45.292;11.784;2022-12-07T13:33:48;4.60;;;2.70;;
69551;SDS011;63774;45.292;11.784;2022-12-07T13:36:56;5.00;;;3.00;;
69551;SDS011;63774;45.292;11.784;2022-12-07T13:39:11;5.80;;;2.90;;
69551;SDS011;63774;45.292;11.784;2022-12-07T13:41:43;4.60;;;2.50;;
69551;SDS011;63774;45.292;11.784;2022-12-07T13:44:09;5.50;;;3.10;;
69551;SDS011;63774;45.292;11.784;2022-12-07T13:50:20;5.20;;;2.70;;
69551;SDS011;63774;45.292;11.784;2022-12-07T13:52:48;4.30;;;2.70;;
69551;SDS011;63774;45.292;11.784;2022-12-07T13:55:15;4.50;;;2.80;;
69551;SDS011;63774;45.292;11.784;2022-12-07T13:57:42;4.80;;;2.80;;
69551;SDS011;63774;45.292;11.784;2022-12-07T14:00:23;5.40;;;3.30;;
69551;SDS011;63774;45.292;11.784;2022-12-07T14:06:03;4.50;;;2.70;;
69551;SDS011;63774;45.292;11.784;2022-12-07T14:08:40;4.10;;;2.60;;
69551;SDS011;63774;45.292;11.784;2022-12-07T14:11:06;4.50;;;2.70;;
69551;SDS011;63774;45.292;11.784;2022-12-07T14:13:39;6.20;;;2.70;;
69551;SDS011;63774;45.292;11.784;2022-12-07T14:16:24;4.20;;;2.60;;
69551;SDS011;63774;45.292;11.784;2022-12-07T14:18:50;5.30;;;2.80;;
69551;SDS011;63774;45.292;11.784;2022-12-07T14:21:17;4.60;;;2.60;;
69551;SDS011;63774;45.292;11.784;2022-12-07T14:26:33;5.20;;;3.10;;
69551;SDS011;63774;45.292;11.784;2022-12-07T14:31:44;5.80;;;2.60;;
69551;SDS011;63774;45.292;11.784;2022-12-07T14:34:12;5.00;;;2.50;;
69551;SDS011;63774;45.292;11.784;2022-12-07T14:36:38;4.20;;;2.60;;
69551;SDS011;63774;45.292;11.784;2022-12-07T14:39:03;4.20;;;2.60;;
69551;SDS011;63774;45.292;11.784;2022-12-07T14:41:28;4.60;;;2.70;;
69551;SDS011;63774;45.292;11.784;2022-12-07T14:44:12;5.10;;;2.70;;
69551;SDS011;63774;45.292;11.784;2022-12-07T14:46:38;5.40;;;2.70;;
69551;SDS011;63774;45.292;11.784;2022-12-07T14:49:04;5.50;;;2.80;;
69551;SDS011;63774;45.292;11.784;2022-12-07T14:51:30;4.80;;;3.00;;
69551;SDS011;63774;45.292;11.784;2022-12-07T14:53:56;5.00;;;3.10;;
69551;SDS011;63774;45.292;11.784;2022-12-07T14:56:22;5.20;;;3.00;;
69551;SDS011;63774;45.292;11.784;2022-12-07T14:58:47;4.50;;;2.50;;
69551;SDS011;63774;45.292;11.784;2022-12-07T15:01:13;5.10;;;2.70;;
69551;SDS011;63774;45.292;11.784;2022-12-07T15:03:39;5.20;;;2.90;;
69551;SDS011;63774;45.292;11.784;2022-12-07T15:06:05;5.10;;;2.90;;
69551;SDS011;63774;45.292;11.784;2022-12-07T15:08:31;5.10;;;3.30;;
69551;SDS011;63774;45.292;11.784;2022-12-07T15:10:57;5.20;;;3.10;;
69551;SDS011;63774;45.292;11.784;2022-12-07T15:13:22;5.40;;;2.80;;
69551;SDS011;63774;45.292;11.784;2022-12-07T15:16:11;5.50;;;3.10;;
69551;SDS011;63774;45.292;11.784;2022-12-07T15:18:38;5.10;;;2.90;;
69551;SDS011;63774;45.292;11.784;2022-12-07T15:21:04;4.80;;;3.00;;
69551;SDS011;63774;45.292;11.784;2022-12-07T15:23:29;5.80;;;3.10;;
69551;SDS011;63774;45.292;11.784;2022-12-07T15:25:56;5.80;;;3.00;;
69551;SDS011;63774;45.292;11.784;2022-12-07T15:28:21;4.80;;;2.90;;
69551;SDS011;63774;45.292;11.784;2022-12-07T15:30:47;5.30;;;2.90;;
69551;SDS011;63774;45.292;11.784;2022-12-07T15:33:12;5.00;;;3.20;;
69551;SDS011;63774;45.292;11.784;2022-12-07T15:35:39;6.30;;;3.10;;
69551;SDS011;63774;45.292;11.784;2022-12-07T15:38:05;7.40;;;3.00;;
69551;SDS011;63774;45.292;11.784;2022-12-07T15:40:31;4.40;;;2.90;;
69551;SDS011;63774;45.292;11.784;2022-12-07T15:42:57;7.50;;;3.30;;
69551;SDS011;63774;45.292;11.784;2022-12-07T15:45:22;5.20;;;3.00;;
69551;SDS011;63774;45.292;11.784;2022-12-07T15:47:47;5.80;;;3.40;;
69551;SDS011;63774;45.292;11.784;2022-12-07T15:50:14;5.80;;;3.30;;
69551;SDS011;63774;45.292;11.784;2022-12-07T15:52:41;5.20;;;3.20;;
69551;SDS011;63774;45.292;11.784;2022-12-07T15:55:07;5.50;;;3.20;;
69551;SDS011;63774;45.292;11.784;2022-12-07T15:57:34;5.50;;;3.20;;
69551;SDS011;63774;45.292;11.784;2022-12-07T16:00:02;6.00;;;3.10;;
69551;SDS011;63774;45.292;11.784;2022-12-07T16:02:29;6.30;;;3.30;;
69551;SDS011;63774;45.292;11.784;2022-12-07T16:04:54;5.10;;;3.30;;
69551;SDS011;63774;45.292;11.784;2022-12-07T16:07:19;5.10;;;3.30;;
69551;SDS011;63774;45.292;11.784;2022-12-07T16:09:45;6.40;;;3.30;;
69551;SDS011;63774;45.292;11.784;2022-12-07T16:12:11;5.70;;;3.40;;
69551;SDS011;63774;45.292;11.784;2022-12-07T16:14:38;5.60;;;3.50;;
69551;SDS011;63774;45.292;11.784;2022-12-07T16:17:04;4.70;;;3.20;;
69551;SDS011;63774;45.292;11.784;2022-12-07T16:19:30;4.70;;;3.40;;
69551;SDS011;63774;45.292;11.784;2022-12-07T16:21:56;5.90;;;3.30;;
69551;SDS011;63774;45.292;11.784;2022-12-07T16:24:22;6.60;;;3.50;;
69551;SDS011;63774;45.292;11.784;2022-12-07T16:26:48;5.50;;;3.60;;
69551;SDS011;63774;45.292;11.784;2022-12-07T16:29:14;6.30;;;3.50;;
69551;SDS011;63774;45.292;11.784;2022-12-07T16:31:40;6.30;;;3.60;;
69551;SDS011;63774;45.292;11.784;2022-12-07T16:34:06;5.00;;;3.20;;
69551;SDS011;63774;45.292;11.784;2022-12-07T16:36:32;7.10;;;3.80;;
69551;SDS011;63774;45.292;11.784;2022-12-07T16:38:58;6.10;;;3.70;;
69551;SDS011;63774;45.292;11.784;2022-12-07T16:41:25;7.00;;;4.00;;
69551;SDS011;63774;45.292;11.784;2022-12-07T16:43:50;5.20;;;3.50;;
69551;SDS011;63774;45.292;11.784;2022-12-07T16:46:16;5.70;;;3.60;;
69551;SDS011;63774;45.292;11.784;2022-12-07T16:48:42;5.80;;;3.50;;
69551;SDS011;63774;45.292;11.784;2022-12-07T16:51:10;6.70;;;3.70;;
69551;SDS011;63774;45.292;11.784;2022-12-07T16:53:37;8.00;;;4.00;;
69551;SDS011;63774;45.292;11.784;2022-12-07T16:56:03;6.20;;;3.70;;
69551;SDS011;63774;45.292;11.784;2022-12-07T16:58:34;6.50;;;3.70;;
69551;SDS011;63774;45.292;11.784;2022-12-07T17:00:59;7.90;;;4.20;;
69551;SDS011;63774;45.292;11.784;2022-12-07T17:03:35;7.10;;;4.30;;
69551;SDS011;63774;45.292;11.784;2022-12-07T17:06:01;6.60;;;3.90;;
69551;SDS011;63774;45.292;11.784;2022-12-07T17:08:26;8.20;;;4.70;;
69551;SDS011;63774;45.292;11.784;2022-12-07T17:10:51;6.80;;;4.10;;
69551;SDS011;63774;45.292;11.784;2022-12-07T17:13:17;7.20;;;4.40;;
69551;SDS011;63774;45.292;11.784;2022-12-07T17:16:02;6.90;;;4.40;;
69551;SDS011;63774;45.292;11.784;2022-12-07T17:18:30;7.50;;;4.60;;
69551;SDS011;63774;45.292;11.784;2022-12-07T17:21:05;6.90;;;4.30;;